Inman, KS (67546)

1:21 AM CST on February 11, 2016 (GMT -0600)
Inman | | Change Station
CLOSE
Current Station
Personal Weather Station
Location: Inman, KS
Elevation: 1526 ft
Nearby Weather Stations

Elev 1526 ft 38.23 °N, 97.77 °W | Updated 55 seconds ago

Mostly Cloudy
Mostly Cloudy
37.6 °F
Feels Like 31 °F
N
10.0
Wind Variable Wind from NNW
Gusts 11.0 mph

Today
High -- | Low -- °F
--% Chance of Precip.
Yesterday
High -- | Low -- °F
Precip. -- in
Pressure 30.02 in
Visibility 10.0 miles
Clouds Clear
Windchill 31 °F
Dew Point 30 °F
Humidity 75%
Rainfall 0.00 in
Snow Depth Not available.
7:26 AM 6:04 PM
Waxing Crescent, 10% visible
METAR KHUT 110652Z AUTO 01009KT 10SM CLR 06/M01 A3004 RMK AO2 SLP165 T00611011
Pressure 30.02 in
Visibility 10.0 miles
Clouds Clear
Windchill 31 °F
Dew Point 30 °F
Humidity 75%
Rainfall 0.00 in
Snow Depth Not available.
7:26 AM 6:04 PM
Waxing Crescent, 10% visible
METAR KHUT 110652Z AUTO 01009KT 10SM CLR 06/M01 A3004 RMK AO2 SLP165 T00611011

10-Day Weather Forecast

Almanac

Astronomy

Feb. 11, 2016 Rise Set
Actual Time
Civil Twilight
Nautical Twilight
Astronomical Twilight
Moon
Length of Visible Light
Length of Day
Tomorrow will be .
, % of the Moon is Illuminated

Today's Extremes

State Highs State Lows

Community

WunderPhotos

Upload Photos

1,892,030 photos uploaded!

WunderBlog® & News

Nearby

Air Quality

  Air Quality AQ Index Pollutant
Not available.

Snow Depth

Station Depth Elevation

Earthquake Activity

City Distance Mag. Time & Date
Minimum magnitude displayed is 2.5.

Coastal Water Temperatures

Place Temperature

Stations

Nearby Weather Stations

Station Location Temp. Windchill Dew Point Humidity Wind Precip. Elev Updated Type
                   

Watches & Warnings

There are currently no watches in effect.